Time;durP1;ratioP1;P1;durP2;ratioP2;P2;SDS_P1;SDS_P2;PMS_P1;PMS_P2;Temp;Humidity;BMP_temperature;BMP_pressure;BME280_temperature;BME280_humidity;BME280_pressure;Samples;Min_cycle;Max_cycle;Signal;HPM_P1;HPM_P2
2022/04/27 00:00:24;;;;;;;;;;;;;;;13.19;45.74;102455.59;5072095;28;19924;-71
2022/04/27 00:02:49;;;;;;;;;;;;;;;13.13;46.28;102450.16;5073631;28;20012;-72
2022/04/27 00:05:14;;;;;;;;;;;;;;;12.92;47.01;102458.38;5073346;28;19968;-71
2022/04/27 00:07:40;;;;;;;;;;;;;;;12.98;46.92;102452.16;5073402;28;20011;-71
2022/04/27 00:10:05;;;;;;;;;;;;;;;12.87;46.58;102455.44;5073264;28;20327;-71
2022/04/27 00:12:31;;;;;;;;;;;;;;;12.83;48.21;102457.72;5073394;28;19992;-70
2022/04/27 00:14:56;;;;;;;;;;;;;;;12.94;46.57;102450.91;5078719;28;20272;-72
2022/04/27 00:17:21;;;;;;;;;;;;;;;13.09;46.03;102449.75;5093188;28;19923;-73
2022/04/27 00:19:46;;;;;;;;;;;;;;;12.93;45.85;102450.06;5093182;28;19924;-72
2022/04/27 00:22:13;;;;;;;;;;;;;;;12.96;45.48;102449.69;5093306;28;20459;-71
2022/04/27 00:24:39;;;;;;;;;;;;;;;13.05;45.47;102447.69;5093560;28;19928;-71
2022/04/27 00:27:05;;;;;;;;;;;;;;;13.11;45.70;102447.69;5083321;28;19916;-71
2022/04/27 00:29:30;;;;;;;;;;;;;;;12.92;45.66;102440.31;5073013;28;19920;-71
2022/04/27 00:31:55;;;;;;;;;;;;;;;12.80;45.74;102435.69;5072799;28;19927;-71
2022/04/27 00:34:21;;;;;;;;;;;;;;;12.80;45.83;102438.38;5072765;28;19920;-71
2022/04/27 00:36:46;;;;;;;;;;;;;;;12.74;46.38;102448.13;5083879;28;19936;-72
2022/04/27 00:39:12;;;;;;;;;;;;;;;12.79;46.31;102444.81;5093568;28;19956;-72
2022/04/27 00:41:37;;;;;;;;;;;;;;;12.81;46.22;102438.22;5073084;28;19921;-73
2022/04/27 00:44:02;;;;;;;;;;;;;;;12.74;46.43;102437.31;5072625;28;19920;-71
2022/04/27 00:46:27;;;;;;;;;;;;;;;12.87;46.08;102439.25;5072573;28;20007;-71
2022/04/27 00:48:53;;;;;;;;;;;;;;;12.89;45.52;102438.00;5072838;28;19925;-71
2022/04/27 00:51:21;;;;;;;;;;;;;;;12.81;45.54;102446.31;5073363;28;19969;-72
2022/04/27 00:53:48;;;;;;;;;;;;;;;12.85;45.35;102442.16;5073258;28;19921;-72
2022/04/27 00:56:14;;;;;;;;;;;;;;;12.82;45.24;102442.56;5072518;28;20443;-71
2022/04/27 00:58:39;;;;;;;;;;;;;;;12.84;45.54;102453.13;5072612;28;19916;-72
2022/04/27 01:01:05;;;;;;;;;;;;;;;12.57;46.06;102440.56;5072018;28;20030;-71
2022/04/27 01:03:30;;;;;;;;;;;;;;;12.78;45.52;102443.16;5072784;28;19921;-71
2022/04/27 01:05:57;;;;;;;;;;;;;;;12.68;44.72;102445.38;5071280;28;20311;-72
2022/04/27 01:08:22;;;;;;;;;;;;;;;12.67;46.21;102446.41;5072524;28;19924;-71
2022/04/27 01:10:48;;;;;;;;;;;;;;;12.83;45.69;102446.94;5072337;28;20393;-71
2022/04/27 01:13:14;;;;;;;;;;;;;;;12.91;45.36;102443.22;5072229;28;19921;-71
2022/04/27 01:15:39;;;;;;;;;;;;;;;12.77;45.05;102436.94;5072314;28;20403;-71
2022/04/27 01:18:06;;;;;;;;;;;;;;;12.71;44.85;102440.44;5072498;28;19920;-72
2022/04/27 01:20:32;;;;;;;;;;;;;;;12.50;45.00;102445.09;5071923;28;19924;-71
2022/04/27 01:22:57;;;;;;;;;;;;;;;12.44;45.34;102444.03;5072074;28;19928;-72
2022/04/27 01:25:23;;;;;;;;;;;;;;;12.35;45.83;102455.97;5072548;28;19917;-72
2022/04/27 01:27:48;;;;;;;;;;;;;;;12.22;45.83;102450.50;5072655;28;20003;-72
2022/04/27 01:30:13;;;;;;;;;;;;;;;12.41;45.82;102454.34;5072491;28;20015;-71
2022/04/27 01:32:38;;;;;;;;;;;;;;;12.28;46.28;102452.41;5071694;28;19956;-71
2022/04/27 01:35:04;;;;;;;;;;;;;;;12.20;45.44;102448.03;5071639;28;20436;-72
2022/04/27 01:40:13;;;;;;;;;;;;;;;12.29;45.94;102457.59;5084938;28;20293;-72
2022/04/27 01:42:38;;;;;;;;;;;;;;;12.33;46.01;102458.88;5071355;28;19928;-72
2022/04/27 01:45:03;;;;;;;;;;;;;;;12.27;46.72;102464.22;5071734;28;20375;-72
2022/04/27 01:47:29;;;;;;;;;;;;;;;12.40;46.49;102458.09;5071596;28;19916;-72
2022/04/27 01:49:54;;;;;;;;;;;;;;;12.32;45.82;102459.88;5071356;28;20368;-72
2022/04/27 01:55:03;;;;;;;;;;;;;;;12.40;45.22;102458.09;5071778;28;20016;-72
2022/04/27 01:57:29;;;;;;;;;;;;;;;12.36;45.41;102460.34;5072031;28;20003;-71
2022/04/27 01:59:55;;;;;;;;;;;;;;;12.32;45.72;102462.59;5072313;28;19920;-72
2022/04/27 02:02:20;;;;;;;;;;;;;;;12.26;46.05;102470.66;5069606;28;19935;-72
2022/04/27 02:04:46;;;;;;;;;;;;;;;12.01;46.70;102469.41;5071855;28;20318;-73
2022/04/27 02:07:11;;;;;;;;;;;;;;;12.01;48.21;102477.50;5071733;28;19920;-71
2022/04/27 02:09:37;;;;;;;;;;;;;;;11.92;49.05;102470.56;5071607;28;19939;-72
2022/04/27 02:12:03;;;;;;;;;;;;;;;12.05;48.94;102476.91;5071855;28;19916;-72
2022/04/27 02:14:28;;;;;;;;;;;;;;;12.09;48.42;102472.78;5069943;28;19920;-72
2022/04/27 02:16:54;;;;;;;;;;;;;;;11.99;48.71;102479.56;5071432;28;19923;-72
2022/04/27 02:19:21;;;;;;;;;;;;;;;11.86;49.16;102484.81;5071011;28;19920;-72
2022/04/27 02:21:46;;;;;;;;;;;;;;;11.63;50.60;102492.22;5070039;28;19952;-72
2022/04/27 02:24:12;;;;;;;;;;;;;;;11.50;51.35;102506.38;5073853;28;19970;-71
2022/04/27 02:26:37;;;;;;;;;;;;;;;11.49;52.59;102507.41;5073177;28;19921;-71
2022/04/27 02:29:02;;;;;;;;;;;;;;;11.66;52.46;102499.94;5075183;28;19927;-71
2022/04/27 02:31:28;;;;;;;;;;;;;;;11.98;51.17;102499.44;5075035;28;19943;-70
2022/04/27 02:33:54;;;;;;;;;;;;;;;11.89;50.90;102498.72;5075171;28;19927;-72
2022/04/27 02:36:19;;;;;;;;;;;;;;;11.81;50.62;102506.13;5082669;28;19916;-70
2022/04/27 02:38:44;;;;;;;;;;;;;;;12.09;50.36;102505.13;5095375;28;19920;-71
2022/04/27 02:41:09;;;;;;;;;;;;;;;12.31;49.49;102509.47;5080572;28;19935;-71
2022/04/27 02:43:35;;;;;;;;;;;;;;;12.38;48.99;102507.63;5074866;28;19931;-71
2022/04/27 02:46:00;;;;;;;;;;;;;;;12.36;49.01;102506.19;5073154;28;19947;-72
2022/04/27 02:48:25;;;;;;;;;;;;;;;12.16;49.51;102507.88;5074380;28;20336;-70
2022/04/27 02:53:37;;;;;;;;;;;;;;;12.12;49.39;102502.06;5074668;28;20271;-71
2022/04/27 02:56:03;;;;;;;;;;;;;;;12.01;50.08;102507.94;5074614;28;19920;-71
2022/04/27 02:58:28;;;;;;;;;;;;;;;12.12;49.88;102509.31;5074384;28;19993;-70
2022/04/27 03:00:53;;;;;;;;;;;;;;;12.30;49.50;102515.88;5074405;28;19924;-71
2022/04/27 03:03:19;;;;;;;;;;;;;;;12.36;49.98;102522.34;5074983;28;20690;-71
2022/04/27 03:05:44;;;;;;;;;;;;;;;12.32;50.19;102524.59;5074947;28;20304;-70
2022/04/27 03:08:10;;;;;;;;;;;;;;;11.86;51.97;102522.53;5074570;28;19956;-72
2022/04/27 03:10:35;;;;;;;;;;;;;;;12.09;50.81;102528.53;5074644;28;20000;-72
2022/04/27 03:13:00;;;;;;;;;;;;;;;12.20;50.40;102517.25;5074269;28;19923;-71
2022/04/27 03:15:26;;;;;;;;;;;;;;;12.14;50.71;102524.25;5074110;28;19916;-69
2022/04/27 03:18:16;;;;;;;;;;;;;;;12.16;50.20;102522.19;5074694;28;20361;-71
2022/04/27 03:20:36;;;;;;;;;;;;;;;12.15;50.74;102525.91;5074245;28;19921;-70
2022/04/27 03:23:01;;;;;;;;;;;;;;;12.34;50.62;102527.13;5072542;28;20065;-70
2022/04/27 03:25:27;;;;;;;;;;;;;;;12.35;50.12;102529.59;5074650;28;19927;-70
2022/04/27 03:27:52;;;;;;;;;;;;;;;12.04;50.86;102533.69;5074426;28;19979;-72
2022/04/27 03:30:17;;;;;;;;;;;;;;;12.34;50.33;102527.13;5074472;28;19920;-71
2022/04/27 03:32:43;;;;;;;;;;;;;;;11.97;51.16;102536.31;5073451;28;19974;-71
2022/04/27 03:35:08;;;;;;;;;;;;;;;12.12;50.87;102531.69;5073828;28;19921;-70
2022/04/27 03:37:34;;;;;;;;;;;;;;;12.27;51.24;102537.00;5091978;28;19923;-71
2022/04/27 03:39:59;;;;;;;;;;;;;;;12.40;50.66;102533.56;5089389;28;19924;-71
2022/04/27 03:42:24;;;;;;;;;;;;;;;12.29;51.28;102530.38;5073686;28;19916;-70
2022/04/27 03:44:49;;;;;;;;;;;;;;;12.44;50.28;102529.47;5073973;28;19916;-71
2022/04/27 03:47:15;;;;;;;;;;;;;;;12.58;50.24;102534.75;5073656;28;19927;-71
2022/04/27 03:49:40;;;;;;;;;;;;;;;12.63;49.40;102532.31;5073671;28;20058;-71
2022/04/27 03:52:05;;;;;;;;;;;;;;;12.70;49.73;102525.06;5073567;28;19924;-70
2022/04/27 03:54:30;;;;;;;;;;;;;;;12.63;49.67;102529.59;5073723;28;20321;-70
2022/04/27 03:56:56;;;;;;;;;;;;;;;12.41;50.05;102533.38;5073967;28;20000;-71
2022/04/27 03:59:21;;;;;;;;;;;;;;;12.57;49.77;102533.09;5073646;28;19924;-70
2022/04/27 04:01:46;;;;;;;;;;;;;;;12.42;50.01;102532.38;5073188;28;20441;-71
2022/04/27 04:04:11;;;;;;;;;;;;;;;12.09;51.73;102533.94;5073204;28;20356;-71
2022/04/27 04:06:39;;;;;;;;;;;;;;;12.63;49.98;102539.56;5073780;28;20014;-70
2022/04/27 04:09:04;;;;;;;;;;;;;;;12.45;50.51;102537.34;5092401;28;19944;-71
2022/04/27 04:11:29;;;;;;;;;;;;;;;12.65;49.95;102540.19;5088628;28;19958;-71
2022/04/27 04:13:54;;;;;;;;;;;;;;;12.48;50.15;102539.63;5073450;28;20351;-71
2022/04/27 04:16:20;;;;;;;;;;;;;;;12.64;49.87;102538.53;5073363;28;19924;-71
2022/04/27 04:18:45;;;;;;;;;;;;;;;12.78;49.75;102538.41;5073378;28;20320;-71
2022/04/27 04:21:10;;;;;;;;;;;;;;;12.63;49.60;102551.19;5074062;28;19924;-72
2022/04/27 04:23:35;;;;;;;;;;;;;;;12.69;49.91;102544.16;5072889;28;19921;-70
2022/04/27 04:28:45;;;;;;;;;;;;;;;13.00;49.37;102558.03;5073098;28;19927;-70
2022/04/27 04:31:10;;;;;;;;;;;;;;;12.39;50.41;102551.59;5072979;28;19921;-70
2022/04/27 04:33:37;;;;;;;;;;;;;;;12.61;50.45;102555.09;5073113;28;19943;-70
2022/04/27 04:36:02;;;;;;;;;;;;;;;12.97;49.26;102555.75;5078715;28;19990;-70
2022/04/27 04:38:28;;;;;;;;;;;;;;;13.15;49.30;102547.97;5093285;28;20312;-70
2022/04/27 04:40:53;;;;;;;;;;;;;;;13.27;49.30;102550.97;5080977;28;19931;-71
2022/04/27 04:43:18;;;;;;;;;;;;;;;13.11;49.68;102558.34;5072719;28;19920;-70
2022/04/27 04:45:44;;;;;;;;;;;;;;;13.07;49.66;102558.97;5072136;28;19970;-70
2022/04/27 04:48:09;;;;;;;;;;;;;;;13.30;48.78;102564.03;5072870;28;20023;-71
2022/04/27 04:50:36;;;;;;;;;;;;;;;13.14;49.07;102563.34;5072999;28;20341;-71
2022/04/27 04:53:02;;;;;;;;;;;;;;;13.31;48.75;102571.94;5072355;28;20003;-71
2022/04/27 04:55:28;;;;;;;;;;;;;;;13.38;48.88;102567.41;5072499;28;19920;-71
2022/04/27 04:57:53;;;;;;;;;;;;;;;13.48;48.81;102572.44;5073022;28;20011;-71
2022/04/27 05:00:18;;;;;;;;;;;;;;;13.43;49.19;102580.28;5072705;28;19963;-71
2022/04/27 05:02:44;;;;;;;;;;;;;;;13.47;48.60;102577.00;5073106;28;19952;-70
2022/04/27 05:05:10;;;;;;;;;;;;;;;13.50;48.62;102571.22;5073118;28;19967;-70
2022/04/27 05:07:35;;;;;;;;;;;;;;;13.45;49.09;102580.91;5073648;28;19956;-71
2022/04/27 05:10:00;;;;;;;;;;;;;;;13.39;49.61;102581.72;5072586;28;19925;-70
2022/04/27 05:12:26;;;;;;;;;;;;;;;13.62;48.84;102583.06;5072437;28;19912;-69
2022/04/27 05:14:52;;;;;;;;;;;;;;;13.49;49.03;102585.72;5072792;28;20245;-71
2022/04/27 05:17:48;;;;;;;;;;;;;;;13.32;50.27;102588.97;5072433;28;20023;-70
2022/04/27 05:20:13;;;;;;;;;;;;;;;13.54;49.35;102594.03;5072520;28;19989;-71
2022/04/27 05:22:38;;;;;;;;;;;;;;;13.27;50.13;102599.56;5072395;28;19920;-70
2022/04/27 05:25:11;;;;;;;;;;;;;;;13.31;50.36;102606.19;5072322;28;19920;-70
2022/04/27 05:27:37;;;;;;;;;;;;;;;13.17;50.74;102602.59;5073089;28;19955;-71
2022/04/27 05:32:46;;;;;;;;;;;;;;;13.18;51.11;102612.38;5072200;28;20379;-71
2022/04/27 05:35:12;;;;;;;;;;;;;;;13.66;49.93;102615.94;5071233;28;19917;-71
2022/04/27 05:37:38;;;;;;;;;;;;;;;13.93;49.15;102615.81;5090696;28;20231;-69
2022/04/27 05:40:03;;;;;;;;;;;;;;;14.06;49.11;102617.69;5087172;28;19925;-71
2022/04/27 05:42:30;;;;;;;;;;;;;;;14.20;48.24;102621.25;5072342;28;19928;-71
2022/04/27 05:44:55;;;;;;;;;;;;;;;14.12;48.70;102625.00;5071990;28;19923;-71
2022/04/27 05:47:23;;;;;;;;;;;;;;;14.43;47.78;102627.97;5071301;28;19921;-70
2022/04/27 05:49:50;;;;;;;;;;;;;;;13.73;49.98;102633.00;5071630;28;20316;-70
2022/04/27 05:52:15;;;;;;;;;;;;;;;14.38;48.55;102632.34;5071754;28;19923;-70
2022/04/27 05:54:40;;;;;;;;;;;;;;;14.79;47.75;102635.69;5071370;28;19920;-70
2022/04/27 05:57:06;;;;;;;;;;;;;;;15.02;47.22;102633.38;5071804;28;20388;-70
2022/04/27 05:59:31;;;;;;;;;;;;;;;15.12;47.25;102638.34;5073599;28;20257;-69
2022/04/27 06:01:56;;;;;;;;;;;;;;;15.00;46.40;102634.66;5075153;28;19928;-70
2022/04/27 06:04:21;;;;;;;;;;;;;;;14.50;47.74;102641.53;5074672;28;19921;-71
2022/04/27 06:06:47;;;;;;;;;;;;;;;14.89;47.47;102636.94;5075603;28;19917;-71
2022/04/27 06:09:13;;;;;;;;;;;;;;;14.94;47.27;102647.13;5075456;28;19917;-71
2022/04/27 06:11:38;;;;;;;;;;;;;;;15.35;46.63;102649.56;5075277;28;20025;-71
2022/04/27 06:14:04;;;;;;;;;;;;;;;15.17;47.42;102649.41;5075503;28;19920;-72
2022/04/27 06:16:32;;;;;;;;;;;;;;;15.39;46.89;102648.91;5075724;28;20376;-70
2022/04/27 06:18:57;;;;;;;;;;;;;;;15.77;46.90;102652.56;5075392;28;20356;-70
2022/04/27 06:21:23;;;;;;;;;;;;;;;15.86;46.29;102649.63;5075312;28;19924;-70
2022/04/27 06:23:48;;;;;;;;;;;;;;;15.65;46.90;102656.16;5076083;28;19916;-70
2022/04/27 06:26:14;;;;;;;;;;;;;;;16.32;45.40;102663.72;5075316;28;19926;-71
2022/04/27 06:28:40;;;;;;;;;;;;;;;16.20;45.41;102660.03;5074909;28;19923;-69
2022/04/27 06:31:05;;;;;;;;;;;;;;;16.45;45.35;102661.75;5074948;28;19928;-71
2022/04/27 06:33:30;;;;;;;;;;;;;;;16.83;44.37;102661.69;5075081;28;19920;-70
2022/04/27 06:35:55;;;;;;;;;;;;;;;16.26;44.92;102661.88;5079514;28;19969;-70
2022/04/27 06:38:21;;;;;;;;;;;;;;;16.69;43.60;102669.13;5095565;28;19923;-70
2022/04/27 06:40:46;;;;;;;;;;;;;;;16.84;43.71;102665.25;5083756;28;19924;-71
2022/04/27 06:43:11;;;;;;;;;;;;;;;16.92;42.54;102668.53;5074893;28;19916;-70
2022/04/27 06:45:36;;;;;;;;;;;;;;;16.16;43.09;102669.66;5074408;28;19982;-70
2022/04/27 06:48:05;;;;;;;;;;;;;;;16.45;43.54;102674.53;5075303;28;19912;-70
2022/04/27 06:50:30;;;;;;;;;;;;;;;16.76;42.17;102670.97;5074645;28;20395;-70
2022/04/27 06:52:59;;;;;;;;;;;;;;;17.32;40.82;102669.78;5074662;28;19916;-69
2022/04/27 06:55:24;;;;;;;;;;;;;;;16.58;41.86;102671.72;5074759;28;19979;-71
2022/04/27 06:57:50;;;;;;;;;;;;;;;17.38;40.94;102674.34;5074734;28;20005;-70
2022/04/27 07:00:15;;;;;;;;;;;;;;;16.96;41.23;102677.06;5075415;28;19935;-71
2022/04/27 07:02:40;;;;;;;;;;;;;;;17.23;40.26;102683.91;5074335;28;19929;-70
2022/04/27 07:05:09;;;;;;;;;;;;;;;17.40;39.79;102682.25;5093844;28;19921;-70
2022/04/27 07:07:34;;;;;;;;;;;;;;;17.20;40.01;102689.78;5094711;28;19916;-70
2022/04/27 07:09:59;;;;;;;;;;;;;;;16.58;40.89;102688.84;5094277;28;19931;-71
2022/04/27 07:12:25;;;;;;;;;;;;;;;16.59;41.01;102695.09;5091861;28;19923;-69
2022/04/27 07:14:53;;;;;;;;;;;;;;;17.38;39.22;102697.94;5089740;28;19920;-69
2022/04/27 07:17:18;;;;;;;;;;;;;;;18.00;38.30;102705.03;5078010;28;19916;-70
2022/04/27 07:19:44;;;;;;;;;;;;;;;18.12;38.27;102698.56;5080470;28;19921;-69
2022/04/27 07:22:10;;;;;;;;;;;;;;;17.89;37.99;102703.88;5079933;28;20007;-71
2022/04/27 07:24:36;;;;;;;;;;;;;;;18.17;38.50;102703.31;5083450;28;20273;-71
2022/04/27 07:27:02;;;;;;;;;;;;;;;18.24;37.53;102701.31;5083800;28;19913;-70
2022/04/27 07:29:28;;;;;;;;;;;;;;;17.13;38.92;102711.59;5083641;28;19920;-71
2022/04/27 07:31:53;;;;;;;;;;;;;;;17.59;37.17;102705.72;5091519;28;20294;-70
2022/04/27 07:34:18;;;;;;;;;;;;;;;17.52;38.12;102710.38;5081002;28;19970;-70
2022/04/27 07:36:44;;;;;;;;;;;;;;;17.70;37.76;102709.56;5075962;28;19920;-69
2022/04/27 07:39:09;;;;;;;;;;;;;;;17.85;37.04;102724.44;5074461;28;19916;-70
2022/04/27 07:41:34;;;;;;;;;;;;;;;17.67;37.60;102719.00;5074417;28;19929;-71
2022/04/27 07:44:00;;;;;;;;;;;;;;;17.80;37.73;102718.88;5081533;28;19924;-70
2022/04/27 07:46:25;;;;;;;;;;;;;;;18.28;37.04;102718.84;5091246;28;19920;-70
2022/04/27 07:48:54;;;;;;;;;;;;;;;18.42;36.66;102723.94;5086062;28;19920;-71
2022/04/27 07:51:20;;;;;;;;;;;;;;;18.09;37.71;102720.78;5087064;28;19923;-71
2022/04/27 07:53:45;;;;;;;;;;;;;;;17.73;37.82;102728.97;5087714;28;20360;-69
2022/04/27 07:56:10;;;;;;;;;;;;;;;18.08;37.85;102726.47;5087844;28;19927;-69
2022/04/27 07:58:36;;;;;;;;;;;;;;;18.60;36.96;102727.63;5091071;28;19920;-69
2022/04/27 08:01:01;;;;;;;;;;;;;;;17.91;37.15;102739.00;5085771;28;19920;-69
2022/04/27 08:03:26;;;;;;;;;;;;;;;17.72;37.19;102732.75;5081672;28;19927;-69
2022/04/27 08:05:52;;;;;;;;;;;;;;;18.37;36.85;102733.81;5073043;28;19924;-70
2022/04/27 08:08:17;;;;;;;;;;;;;;;18.14;36.24;102737.25;5074089;28;19928;-72
2022/04/27 08:10:42;;;;;;;;;;;;;;;18.30;36.20;102742.06;5074002;28;20353;-71
2022/04/27 08:13:07;;;;;;;;;;;;;;;18.52;35.69;102745.16;5073814;28;19970;-70
2022/04/27 08:15:33;;;;;;;;;;;;;;;18.53;35.97;102743.25;5077665;28;19916;-69
2022/04/27 08:18:03;;;;;;;;;;;;;;;18.62;35.34;102739.13;5074135;28;19913;-70
2022/04/27 08:23:33;;;;;;;;;;;;;;;18.89;35.07;102745.81;5073445;28;19935;-68
2022/04/27 08:25:59;;;;;;;;;;;;;;;18.77;35.57;102745.81;5073105;28;20011;-71
2022/04/27 08:28:25;;;;;;;;;;;;;;;18.30;35.77;102746.66;5077909;28;19951;-70
2022/04/27 08:30:50;;;;;;;;;;;;;;;18.16;37.07;102748.75;5081605;28;19963;-70
2022/04/27 08:33:17;;;;;;;;;;;;;;;18.50;35.80;102752.72;5076169;28;20370;-71
2022/04/27 08:35:42;;;;;;;;;;;;;;;18.19;36.39;102744.72;5074152;28;19916;-69
2022/04/27 08:38:09;;;;;;;;;;;;;;;18.13;36.24;102751.09;5087106;28;19965;-70
2022/04/27 08:40:35;;;;;;;;;;;;;;;18.75;35.24;102749.84;5083182;28;19923;-70
2022/04/27 08:43:02;;;;;;;;;;;;;;;19.45;33.96;102754.34;5090009;28;20333;-69
2022/04/27 08:45:28;;;;;;;;;;;;;;;18.44;34.59;102755.53;5075315;28;19924;-70
2022/04/27 08:47:53;;;;;;;;;;;;;;;18.61;34.97;102760.13;5080572;28;20348;-70
2022/04/27 08:50:22;;;;;;;;;;;;;;;19.33;33.97;102764.41;5083455;28;19920;-70
2022/04/27 08:52:48;;;;;;;;;;;;;;;19.05;34.18;102758.78;5077916;28;19986;-68
2022/04/27 08:55:14;;;;;;;;;;;;;;;19.15;33.02;102772.66;5084299;28;20009;-68
2022/04/27 08:57:39;;;;;;;;;;;;;;;18.52;33.90;102764.19;5081170;28;20377;-70
2022/04/27 09:00:06;;;;;;;;;;;;;;;19.45;32.37;102769.88;5084160;28;19920;-73
2022/04/27 09:02:32;;;;;;;;;;;;;;;19.72;31.40;102765.59;5083905;28;19928;-69
2022/04/27 09:05:11;;;;;;;;;;;;;;;19.82;30.76;102765.81;5081544;28;20029;-70
2022/04/27 09:07:37;;;;;;;;;;;;;;;19.13;30.74;102772.91;5074720;28;19929;-69
2022/04/27 09:10:03;;;;;;;;;;;;;;;18.90;32.01;102777.47;5078773;28;20056;-70
2022/04/27 09:12:28;;;;;;;;;;;;;;;19.50;31.84;102778.19;5079591;28;19938;-70
2022/04/27 09:14:57;;;;;;;;;;;;;;;18.52;33.18;102775.09;5078392;28;19978;-69
2022/04/27 09:23:02;;;;;;;;;;;;;;;18.89;32.86;102782.09;5077606;28;19927;-69
2022/04/27 09:25:32;;;;;;;;;;;;;;;19.36;32.05;102774.03;5081223;28;20299;-70
2022/04/27 09:27:59;;;;;;;;;;;;;;;19.33;31.50;102775.31;5073745;28;19924;-69
2022/04/27 09:30:28;;;;;;;;;;;;;;;18.77;32.85;102774.97;5081073;28;19968;-67
2022/04/27 09:32:53;;;;;;;;;;;;;;;19.99;31.39;102769.44;5082649;28;19908;-69
2022/04/27 09:35:32;;;;;;;;;;;;;;;19.95;30.95;102776.47;5085986;28;19920;-69
2022/04/27 09:38:10;;;;;;;;;;;;;;;19.34;31.20;102779.69;5086942;28;19925;-69
2022/04/27 09:40:42;;;;;;;;;;;;;;;19.66;29.68;102775.56;5078143;28;20333;-70
2022/04/27 09:43:09;;;;;;;;;;;;;;;18.88;31.41;102775.00;5079504;28;19928;-69
2022/04/27 09:45:34;;;;;;;;;;;;;;;18.96;31.11;102777.38;5089331;28;19920;-73
2022/04/27 09:48:03;;;;;;;;;;;;;;;18.64;31.48;102767.81;5089922;28;19942;-69
2022/04/27 09:50:58;;;;;;;;;;;;;;;19.53;29.60;102774.97;5086429;28;20008;-68
2022/04/27 09:53:24;;;;;;;;;;;;;;;18.35;30.54;102780.34;5079516;28;19920;-68
2022/04/27 09:55:50;;;;;;;;;;;;;;;19.37;29.71;102784.69;5084054;28;20295;-72
2022/04/27 09:58:16;;;;;;;;;;;;;;;19.04;29.52;102782.50;5085572;28;19920;-70
2022/04/27 10:00:42;;;;;;;;;;;;;;;19.29;29.27;102779.56;5088828;28;19931;-74
2022/04/27 10:03:08;;;;;;;;;;;;;;;19.67;30.09;102781.84;5096559;28;19920;-71
2022/04/27 10:05:33;;;;;;;;;;;;;;;20.13;29.65;102784.50;5084250;28;19931;-72
2022/04/27 10:08:00;;;;;;;;;;;;;;;19.59;30.33;102780.31;5079194;28;19924;-70
2022/04/27 10:10:26;;;;;;;;;;;;;;;20.21;30.22;102788.75;5087080;28;20384;-70
2022/04/27 10:12:52;;;;;;;;;;;;;;;19.90;30.38;102788.09;5092807;28;20061;-74
2022/04/27 10:15:18;;;;;;;;;;;;;;;20.03;30.17;102781.53;5088778;28;19917;-71
2022/04/27 10:17:43;;;;;;;;;;;;;;;20.29;29.79;102780.19;5075657;28;19921;-70
2022/04/27 10:20:28;;;;;;;;;;;;;;;20.14;29.69;102776.09;5077790;28;19936;-72
2022/04/27 10:23:13;;;;;;;;;;;;;;;20.36;29.35;102781.75;5086848;28;19920;-70
2022/04/27 10:25:38;;;;;;;;;;;;;;;19.60;30.89;102778.41;5090038;28;19916;-68
2022/04/27 10:28:15;;;;;;;;;;;;;;;18.33;32.50;102782.44;5084589;28;19920;-70
2022/04/27 10:30:42;;;;;;;;;;;;;;;18.30;32.38;102784.78;5096025;28;19923;-71
2022/04/27 10:33:07;;;;;;;;;;;;;;;18.71;31.75;102784.06;5090237;28;19947;-69
2022/04/27 10:35:33;;;;;;;;;;;;;;;19.93;29.77;102775.91;5080010;28;20391;-70
2022/04/27 10:38:04;;;;;;;;;;;;;;;19.26;30.68;102789.03;5088725;28;19920;-69
2022/04/27 10:40:30;;;;;;;;;;;;;;;18.72;31.67;102778.38;5080841;28;19924;-71
2022/04/27 10:43:08;;;;;;;;;;;;;;;17.35;33.74;102786.22;5078462;28;20029;-71
2022/04/27 10:45:38;;;;;;;;;;;;;;;19.89;30.77;102778.25;5081578;28;19916;-70
2022/04/27 10:48:07;;;;;;;;;;;;;;;19.77;30.77;102782.88;5086740;28;19923;-70
2022/04/27 10:50:37;;;;;;;;;;;;;;;20.15;29.69;102787.81;5095419;28;19917;-69
2022/04/27 10:53:23;;;;;;;;;;;;;;;18.79;31.14;102783.72;5094094;28;19927;-72
2022/04/27 10:55:51;;;;;;;;;;;;;;;19.10;31.94;102794.34;5080829;28;19920;-71
2022/04/27 10:58:22;;;;;;;;;;;;;;;18.57;31.81;102790.75;5090058;28;20004;-70
2022/04/27 11:01:03;;;;;;;;;;;;;;;20.32;30.04;102785.19;5095536;28;20041;-72
2022/04/27 11:03:35;;;;;;;;;;;;;;;20.39;29.51;102794.06;5086096;28;19920;-70
2022/04/27 11:06:24;;;;;;;;;;;;;;;20.09;30.12;102789.59;5081345;28;20016;-72
2022/04/27 11:09:09;;;;;;;;;;;;;;;19.61;29.96;102786.38;5081453;28;20368;-70
2022/04/27 11:11:51;;;;;;;;;;;;;;;20.01;29.47;102787.25;5081497;28;19917;-70
2022/04/27 11:14:18;;;;;;;;;;;;;;;20.57;29.45;102782.94;5078298;28;20027;-70
2022/04/27 11:16:44;;;;;;;;;;;;;;;20.87;28.22;102784.31;5081734;28;20003;-70
2022/04/27 11:19:09;;;;;;;;;;;;;;;20.41;29.78;102787.28;5078646;28;19920;-70
2022/04/27 11:21:54;;;;;;;;;;;;;;;19.86;30.56;102776.00;5085081;28;19922;-71
2022/04/27 11:24:20;;;;;;;;;;;;;;;19.79;30.65;102783.47;5082241;28;20296;-70
2022/04/27 11:26:46;;;;;;;;;;;;;;;19.74;31.17;102791.56;5083416;28;19912;-71
2022/04/27 11:29:12;;;;;;;;;;;;;;;18.69;32.44;102783.47;5082114;28;19926;-71
2022/04/27 11:31:38;;;;;;;;;;;;;;;19.59;30.82;102776.75;5085322;28;20439;-71
2022/04/27 11:34:19;;;;;;;;;;;;;;;20.14;30.74;102784.28;5083649;28;20382;-68
2022/04/27 11:36:44;;;;;;;;;;;;;;;20.21;29.99;102777.84;5077551;28;19921;-70
2022/04/27 11:39:18;;;;;;;;;;;;;;;20.23;30.34;102773.81;5081393;28;20017;-68
2022/04/27 11:41:44;;;;;;;;;;;;;;;19.82;31.15;102782.19;5078582;28;19924;-69
2022/04/27 11:44:09;;;;;;;;;;;;;;;20.64;29.46;102775.41;5080809;28;19927;-68
2022/04/27 11:46:38;;;;;;;;;;;;;;;19.93;29.92;102781.34;5084062;28;19920;-71
2022/04/27 11:49:07;;;;;;;;;;;;;;;19.66;29.93;102778.28;5081792;28;20416;-68
2022/04/27 11:51:35;;;;;;;;;;;;;;;20.29;29.41;102780.19;5081874;28;19927;-68
2022/04/27 11:54:00;;;;;;;;;;;;;;;19.87;29.93;102785.03;5082844;28;19920;-69
2022/04/27 11:56:35;;;;;;;;;;;;;;;20.91;28.48;102779.22;5080778;28;19924;-71
2022/04/27 11:59:07;;;;;;;;;;;;;;;21.91;27.00;102770.97;5078289;28;20488;-69
2022/04/27 12:01:32;;;;;;;;;;;;;;;21.60;27.86;102780.66;5093946;28;19932;-68
2022/04/27 12:03:57;;;;;;;;;;;;;;;21.05;28.04;102774.28;5085800;28;19925;-71
2022/04/27 12:06:23;;;;;;;;;;;;;;;20.80;28.32;102788.28;5073286;28;19912;-70
2022/04/27 12:08:49;;;;;;;;;;;;;;;20.57;27.86;102775.59;5086904;28;20011;-68
2022/04/27 12:11:23;;;;;;;;;;;;;;;20.89;27.87;102781.38;5076615;28;20000;-68
2022/04/27 12:13:54;;;;;;;;;;;;;;;21.36;27.67;102774.53;5087010;28;19927;-70
2022/04/27 12:16:19;;;;;;;;;;;;;;;21.94;26.66;102770.44;5073916;28;19916;-70
2022/04/27 12:18:52;;;;;;;;;;;;;;;22.04;26.66;102765.94;5074128;28;19951;-70
2022/04/27 12:21:24;;;;;;;;;;;;;;;20.61;27.87;102775.91;5083817;28;19919;-68
2022/04/27 12:23:50;;;;;;;;;;;;;;;21.48;26.70;102772.50;5076961;28;19925;-69
2022/04/27 12:26:15;;;;;;;;;;;;;;;22.88;24.90;102764.41;5081037;28;19920;-70
2022/04/27 12:28:46;;;;;;;;;;;;;;;23.34;25.15;102769.22;5085047;28;19920;-71
2022/04/27 12:31:14;;;;;;;;;;;;;;;24.55;22.75;102769.81;5082244;28;20010;-68
2022/04/27 12:33:50;;;;;;;;;;;;;;;24.41;22.92;102766.75;5069815;28;20307;-70
2022/04/27 12:39:16;;;;;;;;;;;;;;;24.71;23.53;102763.25;5079477;28;19927;-68
2022/04/27 12:41:47;;;;;;;;;;;;;;;24.72;22.96;102761.31;5078392;28;19973;-69
2022/04/27 12:44:13;;;;;;;;;;;;;;;25.38;21.56;102759.41;5073130;28;20019;-69
2022/04/27 12:46:58;;;;;;;;;;;;;;;23.57;23.87;102770.75;5074006;28;19999;-69
2022/04/27 12:49:24;;;;;;;;;;;;;;;23.70;24.34;102751.06;5083691;28;19920;-70
2022/04/27 12:51:49;;;;;;;;;;;;;;;22.65;26.00;102754.63;5079126;28;20482;-69
2022/04/27 12:54:14;;;;;;;;;;;;;;;19.61;29.44;102763.69;5079569;28;19919;-69
2022/04/27 12:56:40;;;;;;;;;;;;;;;20.55;28.74;102766.81;5078964;28;19928;-68
2022/04/27 12:59:06;;;;;;;;;;;;;;;22.10;26.34;102764.09;5075885;28;20386;-69